createdAt,value
2022-07-28T12:32:38.756Z,37.56
2022-07-28T12:35:15.709Z,39.04
2022-07-28T12:37:48.008Z,38.03
2022-07-28T12:40:27.348Z,37.82
2022-07-28T12:42:54.970Z,37.08
2022-07-28T12:45:26.329Z,37.99
2022-07-28T12:47:53.993Z,37.08
2022-07-28T12:50:39.852Z,37.50
2022-07-28T12:53:15.838Z,37.17
2022-07-28T12:55:43.905Z,36.35
2022-07-28T12:58:26.706Z,36.18
2022-07-28T13:00:55.086Z,35.80
2022-07-28T13:03:27.454Z,35.97
2022-07-28T13:06:05.166Z,35.65
2022-07-28T13:08:45.127Z,34.94
2022-07-28T13:11:43.181Z,34.80
2022-07-28T13:14:03.089Z,35.68
2022-07-28T13:16:37.966Z,34.99
2022-07-28T13:19:22.147Z,35.68
2022-07-28T13:22:01.745Z,35.88
2022-07-28T13:24:32.649Z,35.99
2022-07-28T13:27:02.018Z,35.30
2022-07-28T13:29:33.992Z,35.38
2022-07-28T13:32:01.949Z,35.13
2022-07-28T13:34:29.265Z,34.43
2022-07-28T13:36:57.002Z,35.08
2022-07-28T13:39:24.860Z,34.95
2022-07-28T13:41:58.312Z,34.94
2022-07-28T13:44:31.505Z,35.21
2022-07-28T13:47:00.554Z,35.00
2022-07-28T13:49:33.301Z,34.88
2022-07-28T13:52:02.000Z,34.40
2022-07-28T13:54:29.855Z,34.49
2022-07-28T13:57:12.528Z,34.38
2022-07-28T13:59:41.676Z,35.26
2022-07-28T14:02:15.299Z,34.92
2022-07-28T14:04:45.910Z,34.74
2022-07-28T14:07:20.873Z,35.01
2022-07-28T14:09:50.496Z,34.78
2022-07-28T14:12:18.087Z,34.79
2022-07-28T14:14:48.295Z,34.13
2022-07-28T14:17:43.306Z,34.37
2022-07-28T14:20:14.521Z,34.96
2022-07-28T14:22:42.120Z,35.34
2022-07-28T14:25:20.801Z,35.90
2022-07-28T14:27:50.134Z,35.54
2022-07-28T14:30:18.457Z,34.64
2022-07-28T14:32:45.625Z,34.52
2022-07-28T14:35:12.838Z,35.58
2022-07-28T14:38:15.717Z,34.03
2022-07-28T14:40:27.397Z,34.71
2022-07-28T14:42:54.464Z,34.97
2022-07-28T14:45:21.842Z,34.40
2022-07-28T14:47:48.976Z,33.91
2022-07-28T14:50:16.033Z,34.68
2022-07-28T14:52:45.141Z,34.15
2022-07-28T14:55:12.931Z,34.44
2022-07-28T14:57:50.366Z,34.64
2022-07-28T15:00:19.937Z,33.93
2022-07-28T15:02:47.787Z,34.81
2022-07-28T15:05:15.105Z,34.16
2022-07-28T15:07:42.303Z,34.47
2022-07-28T15:10:10.441Z,34.46
2022-07-28T15:12:38.047Z,34.20
2022-07-28T15:15:05.744Z,34.39
2022-07-28T15:17:33.353Z,33.50
2022-07-28T15:20:00.498Z,33.57
2022-07-28T15:22:27.544Z,33.27
2022-07-28T15:24:54.527Z,33.96
2022-07-28T15:27:21.531Z,34.45
2022-07-28T15:29:52.399Z,33.93
2022-07-28T15:32:22.122Z,34.02
2022-07-28T15:34:55.876Z,34.42
2022-07-28T15:37:23.865Z,33.92
2022-07-28T15:39:51.014Z,33.91
2022-07-28T15:42:18.076Z,34.33
2022-07-28T15:44:45.263Z,34.25
2022-07-28T15:47:13.574Z,34.92
2022-07-28T15:49:41.503Z,35.51
2022-07-28T15:52:10.121Z,34.96
2022-07-28T15:54:37.152Z,34.86
2022-07-28T15:57:04.379Z,35.26
2022-07-28T15:59:49.151Z,34.72
2022-07-28T16:02:18.406Z,34.70
2022-07-28T16:04:52.204Z,34.58
2022-07-28T16:07:23.290Z,35.16
2022-07-28T16:09:51.943Z,35.84
2022-07-28T16:12:19.127Z,35.82
2022-07-28T16:14:46.199Z,35.25
2022-07-28T16:17:13.693Z,36.28
2022-07-28T16:19:50.188Z,37.19
2022-07-28T16:22:20.931Z,38.44
2022-07-28T16:24:50.642Z,38.59
2022-07-28T16:27:17.704Z,39.25
2022-07-28T16:29:44.942Z,39.79
2022-07-28T16:32:12.714Z,40.18
2022-07-28T16:34:39.905Z,40.07
2022-07-28T16:37:10.545Z,40.24
2022-07-28T16:39:38.221Z,39.89
2022-07-28T16:42:05.502Z,40.52
2022-07-28T16:44:33.623Z,39.73
2022-07-28T16:47:02.072Z,40.04
2022-07-28T16:49:30.235Z,39.84
2022-07-28T16:51:58.205Z,40.33
2022-07-28T16:54:25.264Z,40.91
2022-07-28T16:56:54.465Z,40.65
2022-07-28T16:59:21.928Z,41.03
2022-07-28T17:01:49.274Z,40.60
2022-07-28T17:04:16.894Z,40.51
2022-07-28T17:06:45.885Z,41.27
2022-07-28T17:09:15.840Z,40.75
2022-07-28T17:11:43.785Z,40.97
2022-07-28T17:14:11.801Z,41.69
2022-07-28T17:16:39.826Z,41.49
2022-07-28T17:19:07.044Z,41.22
2022-07-28T17:21:35.743Z,41.56
2022-07-28T17:24:03.980Z,41.38
2022-07-28T17:29:19.040Z,41.74
2022-07-28T17:31:46.348Z,41.67
2022-07-28T17:34:14.155Z,41.93
2022-07-28T17:36:42.219Z,41.30
2022-07-28T17:39:09.657Z,41.97
2022-07-28T17:41:37.039Z,41.38
2022-07-28T17:44:05.561Z,41.24
2022-07-28T17:46:34.805Z,41.48
2022-07-28T17:49:02.938Z,41.33
2022-07-28T17:51:30.700Z,41.71
2022-07-28T17:54:01.794Z,42.43
2022-07-28T17:56:31.238Z,42.69
2022-07-28T17:59:01.398Z,42.10
2022-07-28T18:01:30.558Z,41.96
2022-07-28T18:04:12.146Z,42.30
2022-07-28T18:06:40.681Z,42.38
2022-07-28T18:09:11.505Z,42.49
2022-07-28T18:11:57.653Z,42.56
2022-07-28T18:14:31.324Z,42.68
2022-07-28T18:16:58.758Z,42.62
2022-07-28T18:19:27.154Z,42.44
2022-07-28T18:21:54.697Z,42.39
2022-07-28T18:24:22.771Z,42.34
2022-07-28T18:26:51.312Z,42.52
2022-07-28T18:29:37.971Z,42.31
2022-07-28T18:32:07.787Z,42.32
2022-07-28T18:34:36.888Z,42.72
2022-07-28T18:37:04.176Z,42.94
2022-07-28T18:39:33.040Z,42.35
2022-07-28T18:42:00.066Z,42.60
2022-07-28T18:44:27.198Z,42.79
2022-07-28T18:47:02.481Z,42.62
2022-07-28T18:49:29.590Z,42.98
2022-07-28T18:52:05.799Z,42.83
2022-07-28T18:54:32.962Z,43.03
2022-07-28T18:57:07.989Z,43.06
2022-07-28T18:59:44.613Z,43.00
2022-07-28T19:02:14.867Z,43.35
2022-07-28T19:04:42.270Z,43.25
2022-07-28T19:07:09.319Z,43.33
2022-07-28T19:09:39.801Z,43.41
2022-07-28T19:12:07.303Z,43.48
2022-07-28T19:14:34.612Z,43.18
2022-07-28T19:17:05.515Z,43.45
2022-07-28T19:19:33.469Z,43.52
2022-07-28T19:22:00.513Z,43.25
2022-07-28T19:24:27.627Z,43.55
2022-07-28T19:27:05.083Z,43.67
2022-07-28T19:29:32.979Z,43.72
2022-07-28T19:32:01.907Z,43.58
2022-07-28T19:34:29.539Z,43.71
2022-07-28T19:36:56.717Z,44.03
2022-07-28T19:39:25.145Z,44.11
2022-07-28T19:41:52.283Z,44.00
2022-07-28T19:44:21.263Z,43.89
2022-07-28T19:46:49.238Z,43.97
2022-07-28T19:49:17.275Z,44.23
2022-07-28T19:51:44.800Z,43.86
2022-07-28T19:54:13.241Z,44.04
2022-07-28T19:56:42.791Z,44.29
2022-07-28T19:59:09.882Z,44.10
2022-07-28T20:01:36.954Z,44.30
2022-07-28T20:04:13.185Z,44.56
2022-07-28T20:06:40.254Z,44.52
2022-07-28T20:09:11.409Z,44.34
2022-07-28T20:11:38.997Z,44.48
2022-07-28T20:14:12.269Z,44.67
2022-07-28T20:16:39.644Z,44.65
2022-07-28T20:19:06.696Z,45.02
2022-07-28T20:21:41.050Z,45.04
2022-07-28T20:24:08.369Z,45.10
2022-07-28T20:26:35.527Z,45.12
2022-07-28T20:29:05.828Z,45.53
2022-07-28T20:31:33.121Z,45.35
2022-07-28T20:34:00.452Z,45.21
2022-07-28T20:36:30.010Z,44.82
2022-07-28T20:39:00.039Z,45.01
2022-07-28T20:41:28.202Z,45.39
2022-07-28T20:44:26.231Z,45.46
2022-07-28T20:46:42.336Z,45.58
2022-07-28T20:49:09.738Z,45.51
2022-07-28T20:51:36.987Z,45.48
2022-07-28T20:54:04.102Z,45.79
2022-07-28T20:56:31.311Z,45.76
2022-07-28T20:59:00.589Z,45.65
2022-07-28T21:01:33.344Z,45.94
2022-07-28T21:04:00.608Z,45.83
2022-07-28T21:06:27.917Z,45.64
2022-07-28T21:08:59.686Z,45.92
2022-07-28T21:11:27.063Z,45.97
2022-07-28T21:13:55.321Z,46.23
2022-07-28T21:16:22.958Z,46.21
2022-07-28T21:18:51.263Z,46.47
2022-07-28T21:21:18.248Z,46.10
2022-07-28T21:23:45.318Z,46.78
2022-07-28T21:26:12.681Z,47.06
2022-07-28T21:28:59.949Z,47.49
2022-07-28T21:31:36.838Z,48.00
2022-07-28T21:34:23.755Z,48.38
2022-07-28T21:36:58.309Z,48.91
2022-07-28T21:39:25.437Z,48.78
2022-07-28T21:41:52.711Z,49.20
2022-07-28T21:44:19.977Z,48.96
2022-07-28T21:46:46.983Z,48.40
2022-07-28T21:49:14.412Z,48.53
2022-07-28T21:51:42.101Z,49.33
2022-07-28T21:54:09.390Z,49.38
2022-07-28T21:56:43.982Z,49.46
2022-07-28T21:59:11.222Z,49.66
2022-07-28T22:01:38.559Z,50.48
2022-07-28T22:04:05.933Z,50.69
2022-07-28T22:06:33.074Z,49.65
2022-07-28T22:09:00.287Z,50.45
2022-07-28T22:11:27.522Z,50.45
2022-07-28T22:13:54.850Z,51.10
2022-07-28T22:16:22.154Z,51.25
2022-07-28T22:18:49.510Z,50.63
2022-07-28T22:21:16.646Z,51.25
2022-07-28T22:23:43.755Z,51.30
2022-07-28T22:26:10.747Z,51.43
2022-07-28T22:28:38.030Z,51.92
2022-07-28T22:31:09.311Z,51.50
2022-07-28T22:33:38.067Z,51.72
2022-07-28T22:36:08.529Z,52.04
2022-07-28T22:38:40.192Z,52.87
2022-07-28T22:41:09.771Z,53.78
2022-07-28T22:43:37.436Z,53.10
2022-07-28T22:46:10.156Z,52.84
2022-07-28T22:48:37.477Z,52.39
2022-07-28T22:51:10.444Z,52.83
2022-07-28T22:53:37.813Z,53.30
2022-07-28T22:56:05.446Z,53.54
2022-07-28T22:58:32.654Z,53.44
2022-07-28T23:00:59.692Z,53.00
2022-07-28T23:03:29.586Z,53.89
2022-07-28T23:05:59.344Z,54.18
2022-07-28T23:08:27.210Z,53.60
2022-07-28T23:10:54.764Z,54.03
2022-07-28T23:13:21.885Z,53.95
2022-07-28T23:15:49.136Z,53.76
2022-07-28T23:18:16.407Z,54.41
2022-07-28T23:20:44.780Z,54.19
2022-07-28T23:23:12.322Z,54.54
2022-07-28T23:25:42.519Z,54.37
2022-07-28T23:28:10.838Z,54.88
2022-07-28T23:30:38.095Z,55.60
2022-07-28T23:33:05.441Z,55.58
2022-07-28T23:35:35.657Z,55.86
2022-07-28T23:38:03.198Z,56.01
2022-07-28T23:40:30.182Z,56.22
2022-07-28T23:42:57.387Z,56.82
2022-07-28T23:45:24.653Z,56.69
2022-07-28T23:47:58.110Z,56.15
2022-07-28T23:50:26.276Z,56.19
2022-07-28T23:52:53.524Z,56.66
2022-07-28T23:55:20.757Z,57.32
2022-07-28T23:57:52.114Z,57.67
